Neva Lux — UGZF — position and weather

sailwx.info

Track history (hours):
 
Tides and Currents Weather Stations Pressure Air Temp Water Temp Dewpoint Dewpoint Depression Visibility Wind Speed Wind Dir Waves Ship Positions

Neva Lux

Last reported at 2016-Aug-31 07:33 UTC. Time now 2016-Aug-31 07:59 UTC.
Position N 59°53' E 030°13'.

Length 65 m; draft 4 m.

Type: Tanker. MMSI: 273426540.

Date/timePositionNaut miles runAvg speedWind from/ knotsBaromVisibWave heightAir tempDewpointWater temp
2016-Aug-31 07:33N 59°53' E 030°13'0 0.0
2016-Aug-31 06:33N 59°53' E 030°13'0 0.0
2016-Aug-31 05:33N 59°53' E 030°13'0 0.0
2016-Aug-31 04:33N 59°53' E 030°13'0 0.0
2016-Aug-31 03:33N 59°53' E 030°13'0 0.0
2016-Aug-31 02:33N 59°53' E 030°13'0 0.0
2016-Aug-31 01:33N 59°53' E 030°13'0 0.0
2016-Aug-31 00:33N 59°53' E 030°13'0 0.0
2016-Aug-30 23:33N 59°53' E 030°13'0 0.0
2016-Aug-30 22:33N 59°53' E 030°13'0 0.0
2016-Aug-30 21:33N 59°53' E 030°13'0 0.0
2016-Aug-30 20:33N 59°53' E 030°13'0 0.0
2016-Aug-30 19:33N 59°53' E 030°13'0 0.0
2016-Aug-30 18:33N 59°53' E 030°13'0 0.3
2016-Aug-30 17:33N 59°53' E 030°13'1 0.5
2016-Aug-30 16:33N 59°52' E 030°13'0 0.0
2016-Aug-30 15:32N 59°52' E 030°13'0 0.0
2016-Aug-30 14:33N 59°52' E 030°13'0 0.0
2016-Aug-30 13:33N 59°52' E 030°13'0 0.0
2016-Aug-30 12:33N 59°52' E 030°13'0 0.0
2016-Aug-30 11:33N 59°52' E 030°13'3 2.6
2016-Aug-30 10:33N 59°55' E 030°14'2 2.0
2016-Aug-30 09:33N 59°56' E 030°17'0 0.0
2016-Aug-30 08:33N 59°56' E 030°17'0 0.0
2016-Aug-30 07:33N 59°56' E 030°17'0 0.0
2016-Aug-30 06:33N 59°56' E 030°17'1 0.6
2016-Aug-30 05:33N 59°56' E 030°16'3 3.3
2016-Aug-30 04:33N 59°53' E 030°13'0 0.0
2016-Aug-30 03:33N 59°53' E 030°13'0 0.0
2016-Aug-30 02:33N 59°53' E 030°13'1 1.0
2016-Aug-30 01:33N 59°53' E 030°11'0 0.0
2016-Aug-30 00:33N 59°53' E 030°11'0 0.0
2016-Aug-29 23:32N 59°53' E 030°11'0 0.0
2016-Aug-29 22:33N 59°53' E 030°11'0 0.0
2016-Aug-29 21:33N 59°53' E 030°11'0 0.0
2016-Aug-29 20:33N 59°53' E 030°11'0 0.0
2016-Aug-29 19:33N 59°53' E 030°11'0 0.0
2016-Aug-29 18:33N 59°53' E 030°11'0 0.1
2016-Aug-29 17:33N 59°53' E 030°11'1 1.1
2016-Aug-29 16:34N 59°53' E 030°13'0 0.0
2016-Aug-29 15:33N 59°53' E 030°13'0 0.0
2016-Aug-29 14:33N 59°53' E 030°13'0 0.0
2016-Aug-29 13:33N 59°53' E 030°13'0 0.0
2016-Aug-29 12:33N 59°53' E 030°13'0 0.0
2016-Aug-29 11:33N 59°53' E 030°13'0 0.0
2016-Aug-29 10:33N 59°53' E 030°13'0 0.0
2016-Aug-29 09:32N 59°53' E 030°13'0 0.0
2016-Aug-29 08:33N 59°53' E 030°13'0 0.0
2016-Aug-29 07:33N 59°53' E 030°13'0 0.0
2016-Aug-29 06:33N 59°53' E 030°13'0 0.0
2016-Aug-29 05:32N 59°53' E 030°13'0 0.0
2016-Aug-29 04:33N 59°53' E 030°13'0 0.0
2016-Aug-29 03:33N 59°53' E 030°13'0 0.0
2016-Aug-29 02:33N 59°53' E 030°13'0 0.0
2016-Aug-29 01:33N 59°53' E 030°13'0 0.0
2016-Aug-29 00:33N 59°53' E 030°13'0 0.0
2016-Aug-28 23:33N 59°53' E 030°13'0 0.0
2016-Aug-28 22:33N 59°53' E 030°13'0 0.0
2016-Aug-28 21:33N 59°53' E 030°13'0 0.4
2016-Aug-28 20:33N 59°52' E 030°13'0 0.0
2016-Aug-28 19:33N 59°52' E 030°13'0 0.0
2016-Aug-28 18:33N 59°52' E 030°13'0 0.0
2016-Aug-28 17:33N 59°52' E 030°13'0 0.0
2016-Aug-28 16:32N 59°52' E 030°13'0 0.0
2016-Aug-28 15:33N 59°52' E 030°13'0 0.0
2016-Aug-28 14:33N 59°52' E 030°13'0 0.0
2016-Aug-28 13:12N 59°52' E 030°13'0 0.2
2016-Aug-28 12:33N 59°52' E 030°13'1 0.9
2016-Aug-28 11:32N 59°53' E 030°11'0 0.0
2016-Aug-28 10:33N 59°53' E 030°12'0 0.0
2016-Aug-28 09:33N 59°53' E 030°11'0 0.0
2016-Aug-28 08:33N 59°53' E 030°12'1 1.0
2016-Aug-28 07:33N 59°54' E 030°13'0 0.0
2016-Aug-28 06:33N 59°54' E 030°13'0 0.0
2016-Aug-28 05:33N 59°54' E 030°13'0 0.0
2016-Aug-28 04:33N 59°54' E 030°13'0 0.0
2016-Aug-28 03:33N 59°54' E 030°13'0 0.0
2016-Aug-28 02:33N 59°54' E 030°13'0 0.0
2016-Aug-28 01:33N 59°54' E 030°13'0 0.0
2016-Aug-28 00:33N 59°54' E 030°13'3 3.2
2016-Aug-27 23:33N 59°54' E 030°07'9 8.6
2016-Aug-27 22:33N 59°57' E 029°51'4 4.3
2016-Aug-27 21:33N 59°59' E 029°43'0 0.1
2016-Aug-27 20:31N 59°59' E 029°43'0 0.0
2016-Aug-27 17:23N 59°59' E 029°43'1 0.2
2016-Aug-27 09:15N 59°59' E 029°45'7 9.0
2016-Aug-27 08:32N 59°56' E 029°57'8 8.3
2016-Aug-27 07:33N 59°53' E 030°12'1 0.8
2016-Aug-27 06:33N 59°53' E 030°13'0 0.0
2016-Aug-27 04:33N 59°53' E 030°13'0 0.0
2016-Aug-27 03:33N 59°53' E 030°13'0 0.0
2016-Aug-27 02:33N 59°53' E 030°13'0 0.0
2016-Aug-27 01:33N 59°53' E 030°13'0 0.0
2016-Aug-27 00:33N 59°53' E 030°13'0 0.0
2016-Aug-26 23:33N 59°53' E 030°13'0 0.0
2016-Aug-26 22:33N 59°53' E 030°13'0 0.0
2016-Aug-26 21:33N 59°53' E 030°13'0 0.0
2016-Aug-26 20:33N 59°53' E 030°13'0 0.5
2016-Aug-26 19:33N 59°52' E 030°13'0 0.1
2016-Aug-26 18:33N 59°52' E 030°13'0 0.0
2016-Aug-26 17:33N 59°52' E 030°13'0 0.0
2016-Aug-26 16:33N 59°52' E 030°13'0 0.0
2016-Aug-26 15:33N 59°52' E 030°13'0 0.0
2016-Aug-26 14:33N 59°52' E 030°13'0 0.0
2016-Aug-26 13:33N 59°52' E 030°13'0 0.0
2016-Aug-26 12:33N 59°52' E 030°13'0 0.0
2016-Aug-26 11:32N 59°52' E 030°13'0 0.0
2016-Aug-26 10:33N 59°52' E 030°13'0 0.0
2016-Aug-26 09:34N 59°52' E 030°13'0 0.4
2016-Aug-26 08:33N 59°53' E 030°13'0 0.1
2016-Aug-26 07:33N 59°53' E 030°13'0 0.0
2016-Aug-26 06:33N 59°53' E 030°13'0 0.0
2016-Aug-26 04:33N 59°53' E 030°13'0 0.0
2016-Aug-26 03:33N 59°53' E 030°13'0 0.0
2016-Aug-26 02:33N 59°53' E 030°13'0 0.0
2016-Aug-26 01:33N 59°53' E 030°13'0 0.0
2016-Aug-26 00:33N 59°53' E 030°13'0 0.0
2016-Aug-25 23:33N 59°53' E 030°13'0 0.0
2016-Aug-25 22:33N 59°53' E 030°13'0 0.0
2016-Aug-25 21:33N 59°53' E 030°13'0 0.0
2016-Aug-25 20:33N 59°53' E 030°13'0 0.0
2016-Aug-25 19:33N 59°53' E 030°13'0 0.0
2016-Aug-25 18:33N 59°53' E 030°13'0 0.0
2016-Aug-25 17:32N 59°53' E 030°13'0 0.0
2016-Aug-25 16:33N 59°53' E 030°13'0 0.0
2016-Aug-25 15:33N 59°53' E 030°13'0 0.0
2016-Aug-25 14:33N 59°53' E 030°13'0 0.0
2016-Aug-25 13:33N 59°53' E 030°13'0 0.0
2016-Aug-25 12:33N 59°53' E 030°13'0 0.0
2016-Aug-25 11:33N 59°53' E 030°13'0 0.0
2016-Aug-25 10:33N 59°53' E 030°13'0 0.0
2016-Aug-25 09:33N 59°53' E 030°13'0 0.0
2016-Aug-25 08:33N 59°53' E 030°13'0 0.0
2016-Aug-25 07:33N 59°53' E 030°13'0 0.0
2016-Aug-25 06:33N 59°53' E 030°13'0 0.0
2016-Aug-25 04:33N 59°53' E 030°13'0 0.0
2016-Aug-25 03:33N 59°53' E 030°13'0 0.0
2016-Aug-25 02:33N 59°53' E 030°13'0 0.0
2016-Aug-25 01:33N 59°53' E 030°13'0 0.0
2016-Aug-25 00:33N 59°53' E 030°13'0 0.0
2016-Aug-24 23:33N 59°53' E 030°13'0 0.0
2016-Aug-24 22:33N 59°53' E 030°13'1 0.8
2016-Aug-24 21:32N 59°53' E 030°12'0 0.2
2016-Aug-24 20:32N 59°52' E 030°12'0 0.0
2016-Aug-24 19:33N 59°52' E 030°12'0 0.0
2016-Aug-24 18:33N 59°52' E 030°12'0 0.0
2016-Aug-24 17:33N 59°52' E 030°12'0 0.0
2016-Aug-24 16:33N 59°52' E 030°12'0 0.0
2016-Aug-24 15:33N 59°52' E 030°12'0 0.0
2016-Aug-24 14:33N 59°52' E 030°12'0 0.0
2016-Aug-24 13:32N 59°52' E 030°12'0 0.0
2016-Aug-24 12:30N 59°52' E 030°12'0 0.0
2016-Aug-24 11:33N 59°52' E 030°12'0 0.4
2016-Aug-24 10:33N 59°52' E 030°13'0 0.0
2016-Aug-24 09:33N 59°52' E 030°13'0 0.0
2016-Aug-24 08:33N 59°52' E 030°13'0 0.0
2016-Aug-24 07:33N 59°52' E 030°13'0 0.0
2016-Aug-24 06:33N 59°52' E 030°13'0 0.0
2016-Aug-24 04:33N 59°52' E 030°13'0 0.3
2016-Aug-24 03:33N 59°52' E 030°12'0 0.0
2016-Aug-24 02:33N 59°52' E 030°12'0 0.0
2016-Aug-24 01:33N 59°52' E 030°12'0 0.0
2016-Aug-24 00:33N 59°52' E 030°12'0 0.0
2016-Aug-23 23:33N 59°52' E 030°12'0 0.0
2016-Aug-23 22:33N 59°52' E 030°12'1 0.6
2016-Aug-23 21:33N 59°53' E 030°13'0 0.0
2016-Aug-23 20:33N 59°53' E 030°13'0 0.0
2016-Aug-23 19:33N 59°53' E 030°13'0 0.0
2016-Aug-23 18:33N 59°53' E 030°13'0 0.0
2016-Aug-23 17:33N 59°53' E 030°13'0 0.0
2016-Aug-23 16:33N 59°53' E 030°13'0 0.0
2016-Aug-23 15:33N 59°53' E 030°13'0 0.0
2016-Aug-23 14:33N 59°53' E 030°13'0 0.0
2016-Aug-23 13:33N 59°53' E 030°13'0 0.0
2016-Aug-23 12:31N 59°53' E 030°13'0 0.0
2016-Aug-23 11:33N 59°53' E 030°13'0 0.0
2016-Aug-23 10:31N 59°53' E 030°13'0 0.0
2016-Aug-23 09:33N 59°53' E 030°13'0 0.0
2016-Aug-23 08:33N 59°53' E 030°13'0 0.0
2016-Aug-23 07:32N 59°53' E 030°13'0 0.0
2016-Aug-23 06:33N 59°53' E 030°13'0 0.0
2016-Aug-23 05:33N 59°53' E 030°13'0 0.0
2016-Aug-23 04:33N 59°53' E 030°13'0 0.0
2016-Aug-23 03:33N 59°53' E 030°13'0 0.0
2016-Aug-23 02:33N 59°53' E 030°13'0 0.0
2016-Aug-23 01:32N 59°53' E 030°13'0 0.0
2016-Aug-23 00:33N 59°53' E 030°13'0 0.0
2016-Aug-22 23:33N 59°53' E 030°13'0 0.0
2016-Aug-22 22:33N 59°53' E 030°13'0 0.0
2016-Aug-22 21:33N 59°53' E 030°13'3 2.9
2016-Aug-22 20:33N 59°55' E 030°12'7 6.9
2016-Aug-22 19:33N 59°56' E 029°58'8 6.6
2016-Aug-22 18:17N 59°59' E 029°43'0 0.0
2016-Aug-22 17:30N 59°59' E 029°43'1 0.2
2016-Aug-22 11:03N 59°59' E 029°46'5 9.2
2016-Aug-22 10:32N 59°57' E 029°54'8 8.6
2016-Aug-22 09:33N 59°53' E 030°10'2 1.7
2016-Aug-22 08:33N 59°53' E 030°13'0 0.2
2016-Aug-22 07:33N 59°53' E 030°13'0 0.0
2016-Aug-22 06:33N 59°53' E 030°13'0 0.0
2016-Aug-22 05:33N 59°53' E 030°13'0 0.0
2016-Aug-22 04:33N 59°53' E 030°13'0 0.0
2016-Aug-22 03:33N 59°53' E 030°13'0 0.0
2016-Aug-22 02:17N 59°53' E 030°13'0 0.0
2016-Aug-22 01:18N 59°53' E 030°13'0 0.0
2016-Aug-22 00:33N 59°53' E 030°13'0 0.0
2016-Aug-21 23:33N 59°53' E 030°13'0 0.0
2016-Aug-21 22:33N 59°53' E 030°13'0 0.0
2016-Aug-21 21:33N 59°53' E 030°13'0 0.0
2016-Aug-21 20:33N 59°53' E 030°13'0 0.0
2016-Aug-21 19:33N 59°53' E 030°13'0 0.0
2016-Aug-21 18:34N 59°53' E 030°13'0 0.0
2016-Aug-21 17:33N 59°53' E 030°13'0 0.0
2016-Aug-21 16:33N 59°53' E 030°13'0 0.0
2016-Aug-21 15:33N 59°53' E 030°13'0 0.0
2016-Aug-21 14:33N 59°53' E 030°13'0 0.0
2016-Aug-21 13:33N 59°53' E 030°13'0 0.0
2016-Aug-21 12:33N 59°53' E 030°13'0 0.0
2016-Aug-21 11:33N 59°53' E 030°13'0 0.0
2016-Aug-21 10:33N 59°53' E 030°13'0 0.0
2016-Aug-21 09:33N 59°53' E 030°13'0 0.0
2016-Aug-21 08:33N 59°53' E 030°13'  
Track history (hours):
 
Tides and Currents Weather Stations Pressure Air Temp Water Temp Dewpoint Dewpoint Depression Visibility Wind Speed Wind Dir Waves Ship Positions

Neva Lux

Last reported at 2016-Aug-31 07:33 UTC. Time now 2016-Aug-31 07:59 UTC.
Position N 59°53' E 030°13'.

Length 65 m; draft 4 m.

Type: Tanker. MMSI: 273426540.

Date/timePositionNaut miles runAvg speedWind from/ knotsBaromVisibWave heightAir tempDewpointWater temp
2016-Aug-31 07:33N 59°53' E 030°13'0 0.0
2016-Aug-31 06:33N 59°53' E 030°13'0 0.0
2016-Aug-31 05:33N 59°53' E 030°13'0 0.0
2016-Aug-31 04:33N 59°53' E 030°13'0 0.0
2016-Aug-31 03:33N 59°53' E 030°13'0 0.0
2016-Aug-31 02:33N 59°53' E 030°13'0 0.0
2016-Aug-31 01:33N 59°53' E 030°13'0 0.0
2016-Aug-31 00:33N 59°53' E 030°13'0 0.0
2016-Aug-30 23:33N 59°53' E 030°13'0 0.0
2016-Aug-30 22:33N 59°53' E 030°13'0 0.0
2016-Aug-30 21:33N 59°53' E 030°13'0 0.0
2016-Aug-30 20:33N 59°53' E 030°13'0 0.0
2016-Aug-30 19:33N 59°53' E 030°13'0 0.0
2016-Aug-30 18:33N 59°53' E 030°13'0 0.3
2016-Aug-30 17:33N 59°53' E 030°13'1 0.5
2016-Aug-30 16:33N 59°52' E 030°13'0 0.0
2016-Aug-30 15:32N 59°52' E 030°13'0 0.0
2016-Aug-30 14:33N 59°52' E 030°13'0 0.0
2016-Aug-30 13:33N 59°52' E 030°13'0 0.0
2016-Aug-30 12:33N 59°52' E 030°13'0 0.0
2016-Aug-30 11:33N 59°52' E 030°13'3 2.6
2016-Aug-30 10:33N 59°55' E 030°14'2 2.0
2016-Aug-30 09:33N 59°56' E 030°17'0 0.0
2016-Aug-30 08:33N 59°56' E 030°17'0 0.0
2016-Aug-30 07:33N 59°56' E 030°17'0 0.0
2016-Aug-30 06:33N 59°56' E 030°17'1 0.6
2016-Aug-30 05:33N 59°56' E 030°16'3 3.3
2016-Aug-30 04:33N 59°53' E 030°13'0 0.0
2016-Aug-30 03:33N 59°53' E 030°13'0 0.0
2016-Aug-30 02:33N 59°53' E 030°13'1 1.0
2016-Aug-30 01:33N 59°53' E 030°11'0 0.0
2016-Aug-30 00:33N 59°53' E 030°11'0 0.0
2016-Aug-29 23:32N 59°53' E 030°11'0 0.0
2016-Aug-29 22:33N 59°53' E 030°11'0 0.0
2016-Aug-29 21:33N 59°53' E 030°11'0 0.0
2016-Aug-29 20:33N 59°53' E 030°11'0 0.0
2016-Aug-29 19:33N 59°53' E 030°11'0 0.0
2016-Aug-29 18:33N 59°53' E 030°11'0 0.1
2016-Aug-29 17:33N 59°53' E 030°11'1 1.1
2016-Aug-29 16:34N 59°53' E 030°13'0 0.0
2016-Aug-29 15:33N 59°53' E 030°13'0 0.0
2016-Aug-29 14:33N 59°53' E 030°13'0 0.0
2016-Aug-29 13:33N 59°53' E 030°13'0 0.0
2016-Aug-29 12:33N 59°53' E 030°13'0 0.0
2016-Aug-29 11:33N 59°53' E 030°13'0 0.0
2016-Aug-29 10:33N 59°53' E 030°13'0 0.0
2016-Aug-29 09:32N 59°53' E 030°13'0 0.0
2016-Aug-29 08:33N 59°53' E 030°13'0 0.0
2016-Aug-29 07:33N 59°53' E 030°13'0 0.0
2016-Aug-29 06:33N 59°53' E 030°13'0 0.0
2016-Aug-29 05:32N 59°53' E 030°13'0 0.0
2016-Aug-29 04:33N 59°53' E 030°13'0 0.0
2016-Aug-29 03:33N 59°53' E 030°13'0 0.0
2016-Aug-29 02:33N 59°53' E 030°13'0 0.0
2016-Aug-29 01:33N 59°53' E 030°13'0 0.0
2016-Aug-29 00:33N 59°53' E 030°13'0 0.0
2016-Aug-28 23:33N 59°53' E 030°13'0 0.0
2016-Aug-28 22:33N 59°53' E 030°13'0 0.0
2016-Aug-28 21:33N 59°53' E 030°13'0 0.4
2016-Aug-28 20:33N 59°52' E 030°13'0 0.0
2016-Aug-28 19:33N 59°52' E 030°13'0 0.0
2016-Aug-28 18:33N 59°52' E 030°13'0 0.0
2016-Aug-28 17:33N 59°52' E 030°13'0 0.0
2016-Aug-28 16:32N 59°52' E 030°13'0 0.0
2016-Aug-28 15:33N 59°52' E 030°13'0 0.0
2016-Aug-28 14:33N 59°52' E 030°13'0 0.0
2016-Aug-28 13:12N 59°52' E 030°13'0 0.2
2016-Aug-28 12:33N 59°52' E 030°13'1 0.9
2016-Aug-28 11:32N 59°53' E 030°11'0 0.0
2016-Aug-28 10:33N 59°53' E 030°12'0 0.0
2016-Aug-28 09:33N 59°53' E 030°11'0 0.0
2016-Aug-28 08:33N 59°53' E 030°12'1 1.0
2016-Aug-28 07:33N 59°54' E 030°13'0 0.0
2016-Aug-28 06:33N 59°54' E 030°13'0 0.0
2016-Aug-28 05:33N 59°54' E 030°13'0 0.0
2016-Aug-28 04:33N 59°54' E 030°13'0 0.0
2016-Aug-28 03:33N 59°54' E 030°13'0 0.0
2016-Aug-28 02:33N 59°54' E 030°13'0 0.0
2016-Aug-28 01:33N 59°54' E 030°13'0 0.0
2016-Aug-28 00:33N 59°54' E 030°13'3 3.2
2016-Aug-27 23:33N 59°54' E 030°07'9 8.6
2016-Aug-27 22:33N 59°57' E 029°51'4 4.3
2016-Aug-27 21:33N 59°59' E 029°43'0 0.1
2016-Aug-27 20:31N 59°59' E 029°43'0 0.0
2016-Aug-27 17:23N 59°59' E 029°43'1 0.2
2016-Aug-27 09:15N 59°59' E 029°45'7 9.0
2016-Aug-27 08:32N 59°56' E 029°57'8 8.3
2016-Aug-27 07:33N 59°53' E 030°12'1 0.8
2016-Aug-27 06:33N 59°53' E 030°13'0 0.0
2016-Aug-27 04:33N 59°53' E 030°13'0 0.0
2016-Aug-27 03:33N 59°53' E 030°13'0 0.0
2016-Aug-27 02:33N 59°53' E 030°13'0 0.0
2016-Aug-27 01:33N 59°53' E 030°13'0 0.0
2016-Aug-27 00:33N 59°53' E 030°13'0 0.0
2016-Aug-26 23:33N 59°53' E 030°13'0 0.0
2016-Aug-26 22:33N 59°53' E 030°13'0 0.0
2016-Aug-26 21:33N 59°53' E 030°13'0 0.0
2016-Aug-26 20:33N 59°53' E 030°13'0 0.5
2016-Aug-26 19:33N 59°52' E 030°13'0 0.1
2016-Aug-26 18:33N 59°52' E 030°13'0 0.0
2016-Aug-26 17:33N 59°52' E 030°13'0 0.0
2016-Aug-26 16:33N 59°52' E 030°13'0 0.0
2016-Aug-26 15:33N 59°52' E 030°13'0 0.0
2016-Aug-26 14:33N 59°52' E 030°13'0 0.0
2016-Aug-26 13:33N 59°52' E 030°13'0 0.0
2016-Aug-26 12:33N 59°52' E 030°13'0 0.0
2016-Aug-26 11:32N 59°52' E 030°13'0 0.0
2016-Aug-26 10:33N 59°52' E 030°13'0 0.0
2016-Aug-26 09:34N 59°52' E 030°13'0 0.4
2016-Aug-26 08:33N 59°53' E 030°13'0 0.1
2016-Aug-26 07:33N 59°53' E 030°13'0 0.0
2016-Aug-26 06:33N 59°53' E 030°13'0 0.0
2016-Aug-26 04:33N 59°53' E 030°13'0 0.0
2016-Aug-26 03:33N 59°53' E 030°13'0 0.0
2016-Aug-26 02:33N 59°53' E 030°13'0 0.0
2016-Aug-26 01:33N 59°53' E 030°13'0 0.0
2016-Aug-26 00:33N 59°53' E 030°13'0 0.0
2016-Aug-25 23:33N 59°53' E 030°13'0 0.0
2016-Aug-25 22:33N 59°53' E 030°13'0 0.0
2016-Aug-25 21:33N 59°53' E 030°13'0 0.0
2016-Aug-25 20:33N 59°53' E 030°13'0 0.0
2016-Aug-25 19:33N 59°53' E 030°13'0 0.0
2016-Aug-25 18:33N 59°53' E 030°13'0 0.0
2016-Aug-25 17:32N 59°53' E 030°13'0 0.0
2016-Aug-25 16:33N 59°53' E 030°13'0 0.0
2016-Aug-25 15:33N 59°53' E 030°13'0 0.0
2016-Aug-25 14:33N 59°53' E 030°13'0 0.0
2016-Aug-25 13:33N 59°53' E 030°13'0 0.0
2016-Aug-25 12:33N 59°53' E 030°13'0 0.0
2016-Aug-25 11:33N 59°53' E 030°13'0 0.0
2016-Aug-25 10:33N 59°53' E 030°13'0 0.0
2016-Aug-25 09:33N 59°53' E 030°13'0 0.0
2016-Aug-25 08:33N 59°53' E 030°13'0 0.0
2016-Aug-25 07:33N 59°53' E 030°13'0 0.0
2016-Aug-25 06:33N 59°53' E 030°13'0 0.0
2016-Aug-25 04:33N 59°53' E 030°13'0 0.0
2016-Aug-25 03:33N 59°53' E 030°13'0 0.0
2016-Aug-25 02:33N 59°53' E 030°13'0 0.0
2016-Aug-25 01:33N 59°53' E 030°13'0 0.0
2016-Aug-25 00:33N 59°53' E 030°13'0 0.0
2016-Aug-24 23:33N 59°53' E 030°13'0 0.0
2016-Aug-24 22:33N 59°53' E 030°13'1 0.8
2016-Aug-24 21:32N 59°53' E 030°12'0 0.2
2016-Aug-24 20:32N 59°52' E 030°12'0 0.0
2016-Aug-24 19:33N 59°52' E 030°12'0 0.0
2016-Aug-24 18:33N 59°52' E 030°12'0 0.0
2016-Aug-24 17:33N 59°52' E 030°12'0 0.0
2016-Aug-24 16:33N 59°52' E 030°12'0 0.0
2016-Aug-24 15:33N 59°52' E 030°12'0 0.0
2016-Aug-24 14:33N 59°52' E 030°12'0 0.0
2016-Aug-24 13:32N 59°52' E 030°12'0 0.0
2016-Aug-24 12:30N 59°52' E 030°12'0 0.0
2016-Aug-24 11:33N 59°52' E 030°12'0 0.4
2016-Aug-24 10:33N 59°52' E 030°13'0 0.0
2016-Aug-24 09:33N 59°52' E 030°13'0 0.0
2016-Aug-24 08:33N 59°52' E 030°13'0 0.0
2016-Aug-24 07:33N 59°52' E 030°13'0 0.0
2016-Aug-24 06:33N 59°52' E 030°13'0 0.0
2016-Aug-24 04:33N 59°52' E 030°13'0 0.3
2016-Aug-24 03:33N 59°52' E 030°12'0 0.0
2016-Aug-24 02:33N 59°52' E 030°12'0 0.0
2016-Aug-24 01:33N 59°52' E 030°12'0 0.0
2016-Aug-24 00:33N 59°52' E 030°12'0 0.0
2016-Aug-23 23:33N 59°52' E 030°12'0 0.0
2016-Aug-23 22:33N 59°52' E 030°12'1 0.6
2016-Aug-23 21:33N 59°53' E 030°13'0 0.0
2016-Aug-23 20:33N 59°53' E 030°13'0 0.0
2016-Aug-23 19:33N 59°53' E 030°13'0 0.0
2016-Aug-23 18:33N 59°53' E 030°13'0 0.0
2016-Aug-23 17:33N 59°53' E 030°13'0 0.0
2016-Aug-23 16:33N 59°53' E 030°13'0 0.0
2016-Aug-23 15:33N 59°53' E 030°13'0 0.0
2016-Aug-23 14:33N 59°53' E 030°13'0 0.0
2016-Aug-23 13:33N 59°53' E 030°13'0 0.0
2016-Aug-23 12:31N 59°53' E 030°13'0 0.0
2016-Aug-23 11:33N 59°53' E 030°13'0 0.0
2016-Aug-23 10:31N 59°53' E 030°13'0 0.0
2016-Aug-23 09:33N 59°53' E 030°13'0 0.0
2016-Aug-23 08:33N 59°53' E 030°13'0 0.0
2016-Aug-23 07:32N 59°53' E 030°13'0 0.0
2016-Aug-23 06:33N 59°53' E 030°13'0 0.0
2016-Aug-23 05:33N 59°53' E 030°13'0 0.0
2016-Aug-23 04:33N 59°53' E 030°13'0 0.0
2016-Aug-23 03:33N 59°53' E 030°13'0 0.0
2016-Aug-23 02:33N 59°53' E 030°13'0 0.0
2016-Aug-23 01:32N 59°53' E 030°13'0 0.0
2016-Aug-23 00:33N 59°53' E 030°13'0 0.0
2016-Aug-22 23:33N 59°53' E 030°13'0 0.0
2016-Aug-22 22:33N 59°53' E 030°13'0 0.0
2016-Aug-22 21:33N 59°53' E 030°13'3 2.9
2016-Aug-22 20:33N 59°55' E 030°12'7 6.9
2016-Aug-22 19:33N 59°56' E 029°58'8 6.6
2016-Aug-22 18:17N 59°59' E 029°43'0 0.0
2016-Aug-22 17:30N 59°59' E 029°43'1 0.2
2016-Aug-22 11:03N 59°59' E 029°46'5 9.2
2016-Aug-22 10:32N 59°57' E 029°54'8 8.6
2016-Aug-22 09:33N 59°53' E 030°10'2 1.7
2016-Aug-22 08:33N 59°53' E 030°13'0 0.2
2016-Aug-22 07:33N 59°53' E 030°13'0 0.0
2016-Aug-22 06:33N 59°53' E 030°13'0 0.0
2016-Aug-22 05:33N 59°53' E 030°13'0 0.0
2016-Aug-22 04:33N 59°53' E 030°13'0 0.0
2016-Aug-22 03:33N 59°53' E 030°13'0 0.0
2016-Aug-22 02:17N 59°53' E 030°13'0 0.0
2016-Aug-22 01:18N 59°53' E 030°13'0 0.0
2016-Aug-22 00:33N 59°53' E 030°13'0 0.0
2016-Aug-21 23:33N 59°53' E 030°13'0 0.0
2016-Aug-21 22:33N 59°53' E 030°13'0 0.0
2016-Aug-21 21:33N 59°53' E 030°13'0 0.0
2016-Aug-21 20:33N 59°53' E 030°13'0 0.0
2016-Aug-21 19:33N 59°53' E 030°13'0 0.0
2016-Aug-21 18:34N 59°53' E 030°13'0 0.0
2016-Aug-21 17:33N 59°53' E 030°13'0 0.0
2016-Aug-21 16:33N 59°53' E 030°13'0 0.0
2016-Aug-21 15:33N 59°53' E 030°13'0 0.0
2016-Aug-21 14:33N 59°53' E 030°13'0 0.0
2016-Aug-21 13:33N 59°53' E 030°13'0 0.0
2016-Aug-21 12:33N 59°53' E 030°13'0 0.0
2016-Aug-21 11:33N 59°53' E 030°13'0 0.0
2016-Aug-21 10:33N 59°53' E 030°13'0 0.0
2016-Aug-21 09:33N 59°53' E 030°13'0 0.0
2016-Aug-21 08:33N 59°53' E 030°13'  

Dump ship's entire track history